createdAt,value
2023-02-19T00:00:18.692Z,9.71
2023-02-19T00:05:19.821Z,9.71
2023-02-19T00:10:20.992Z,9.73
2023-02-19T00:15:22.233Z,9.71
2023-02-19T00:20:23.398Z,9.75
2023-02-19T00:25:24.547Z,9.76
2023-02-19T00:30:25.833Z,9.79
2023-02-19T00:35:27.072Z,9.81
2023-02-19T00:40:28.209Z,9.79
2023-02-19T00:45:29.461Z,9.81
2023-02-19T00:50:30.669Z,9.82
2023-02-19T00:55:31.819Z,9.81
2023-02-19T01:00:33.546Z,9.83
2023-02-19T01:05:34.720Z,9.84
2023-02-19T01:10:35.912Z,9.84
2023-02-19T01:15:37.093Z,9.84
2023-02-19T01:20:38.319Z,9.85
2023-02-19T01:25:39.967Z,9.84
2023-02-19T01:30:41.202Z,9.85
2023-02-19T01:35:42.337Z,9.87
2023-02-19T01:40:43.551Z,9.85
2023-02-19T01:45:44.768Z,9.84
2023-02-19T01:50:45.989Z,9.84
2023-02-19T01:55:47.215Z,9.84
2023-02-19T02:00:48.578Z,9.84
2023-02-19T02:05:49.816Z,9.87
2023-02-19T02:10:51.080Z,9.85
2023-02-19T02:15:52.267Z,9.88
2023-02-19T02:20:53.506Z,9.87
2023-02-19T02:25:54.669Z,9.85
2023-02-19T02:30:55.952Z,9.84
2023-02-19T02:35:57.400Z,9.81
2023-02-19T02:40:58.609Z,9.80
2023-02-19T02:45:59.825Z,9.80
2023-02-19T02:51:01.029Z,9.80
2023-02-19T02:56:02.251Z,9.75
2023-02-19T03:01:22.129Z,9.68
2023-02-19T03:06:23.393Z,9.64
2023-02-19T03:11:43.158Z,9.62
2023-02-19T03:17:02.948Z,9.65
2023-02-19T03:22:09.763Z,9.70
2023-02-19T03:27:10.945Z,9.69
2023-02-19T03:32:12.258Z,9.71
2023-02-19T03:37:13.461Z,9.71
2023-02-19T03:42:14.640Z,9.71
2023-02-19T03:47:15.794Z,9.73
2023-02-19T03:52:17.022Z,9.73
2023-02-19T03:57:18.236Z,9.72
2023-02-19T04:02:19.669Z,9.72
2023-02-19T04:07:20.873Z,9.72
2023-02-19T04:12:22.128Z,9.71
2023-02-19T04:17:23.342Z,9.67
2023-02-19T04:22:24.588Z,9.65
2023-02-19T04:27:25.813Z,9.66
2023-02-19T04:32:27.005Z,9.64
2023-02-19T04:37:28.163Z,9.64
2023-02-19T04:42:29.364Z,9.62
2023-02-19T04:47:30.573Z,9.59
2023-02-19T04:52:33.202Z,9.55
2023-02-19T04:57:34.385Z,9.51
2023-02-19T05:02:35.553Z,9.47
2023-02-19T05:07:36.796Z,9.44
2023-02-19T05:12:38.000Z,9.41
2023-02-19T05:17:39.133Z,9.38
2023-02-19T05:22:40.330Z,9.39
2023-02-19T05:27:41.528Z,9.37
2023-02-19T05:32:42.678Z,9.27
2023-02-19T05:37:43.825Z,9.21
2023-02-19T05:42:45.045Z,9.21
2023-02-19T05:47:46.179Z,9.23
2023-02-19T05:52:47.376Z,9.21
2023-02-19T05:57:48.598Z,9.17
2023-02-19T06:02:49.820Z,9.17
2023-02-19T06:07:51.103Z,9.14
2023-02-19T06:12:52.303Z,9.08
2023-02-19T06:17:53.538Z,9.04
2023-02-19T06:22:54.767Z,9.00
2023-02-19T06:27:55.966Z,8.99
2023-02-19T06:32:57.124Z,8.99
2023-02-19T06:37:58.318Z,8.97
2023-02-19T06:43:00.288Z,8.95
2023-02-19T06:48:01.422Z,8.96
2023-02-19T06:53:02.668Z,8.95
2023-02-19T06:58:03.805Z,8.95
2023-02-19T07:03:05.673Z,8.94
2023-02-19T07:08:06.886Z,8.94
2023-02-19T07:13:08.029Z,8.96
2023-02-19T07:18:10.442Z,8.98
2023-02-19T07:23:11.657Z,8.99
2023-02-19T07:28:12.829Z,8.97
2023-02-19T07:33:14.014Z,8.98
2023-02-19T07:38:15.193Z,8.99
2023-02-19T07:43:16.564Z,8.99
2023-02-19T07:48:17.811Z,9.02
2023-02-19T07:53:18.970Z,9.03
2023-02-19T07:58:20.121Z,9.08
2023-02-19T08:03:21.365Z,9.09
2023-02-19T08:08:24.738Z,9.08
2023-02-19T08:13:26.163Z,9.08
2023-02-19T08:18:28.536Z,9.09
2023-02-19T08:23:29.699Z,9.13
2023-02-19T08:28:30.886Z,9.15
2023-02-19T08:33:32.111Z,9.16
2023-02-19T08:38:34.619Z,9.18
2023-02-19T08:43:35.807Z,9.28
2023-02-19T08:48:37.016Z,9.30
2023-02-19T08:53:38.222Z,9.18
2023-02-19T08:58:39.426Z,9.42
2023-02-19T09:03:40.669Z,9.50
2023-02-19T09:08:41.877Z,9.57
2023-02-19T09:13:43.137Z,9.68
2023-02-19T09:18:45.758Z,9.71
2023-02-19T09:23:47.022Z,9.75
2023-02-19T09:28:48.282Z,9.79
2023-02-19T09:33:49.435Z,9.84
2023-02-19T09:38:50.588Z,9.77
2023-02-19T09:43:51.773Z,9.57
2023-02-19T09:48:52.966Z,9.43
2023-02-19T09:53:54.139Z,9.43
2023-02-19T09:58:55.346Z,9.52
2023-02-19T10:03:56.519Z,9.59
2023-02-19T10:08:57.646Z,9.60
2023-02-19T10:13:58.906Z,9.65
2023-02-19T10:19:00.089Z,9.56
2023-02-19T10:24:01.312Z,9.47
2023-02-19T10:29:02.518Z,9.36
2023-02-19T10:34:04.227Z,9.33
2023-02-19T10:39:05.385Z,9.54
2023-02-19T10:44:06.965Z,9.47
2023-02-19T10:49:08.172Z,9.35
2023-02-19T10:54:09.404Z,9.40
2023-02-19T10:59:10.591Z,9.55
2023-02-19T11:04:11.757Z,9.67
2023-02-19T11:09:12.973Z,9.84
2023-02-19T11:14:14.158Z,10.03
2023-02-19T11:19:15.314Z,10.20
2023-02-19T11:24:16.488Z,10.30
2023-02-19T11:29:19.617Z,10.32
2023-02-19T11:34:23.053Z,10.36
2023-02-19T11:39:24.190Z,10.49
2023-02-19T11:44:30.092Z,10.34
2023-02-19T11:49:31.259Z,10.25
2023-02-19T11:54:32.478Z,10.18
2023-02-19T11:59:33.643Z,10.13
2023-02-19T12:04:37.442Z,10.24
2023-02-19T12:09:38.932Z,10.25
2023-02-19T12:14:40.165Z,10.37
2023-02-19T12:19:42.165Z,10.69
2023-02-19T12:24:43.334Z,10.59
2023-02-19T12:29:44.535Z,10.41
2023-02-19T12:34:45.733Z,10.36
2023-02-19T12:39:46.887Z,10.29
2023-02-19T12:44:48.069Z,10.25
2023-02-19T12:49:49.416Z,10.23
2023-02-19T12:54:50.669Z,10.22
2023-02-19T12:59:51.918Z,10.18
2023-02-19T13:04:53.078Z,10.14
2023-02-19T13:09:54.247Z,10.00
2023-02-19T13:14:55.497Z,10.01
2023-02-19T13:19:56.699Z,10.15
2023-02-19T13:24:57.875Z,10.17
2023-02-19T13:29:59.027Z,10.18
2023-02-19T13:35:00.226Z,10.34
2023-02-19T13:40:01.442Z,10.49
2023-02-19T13:45:02.660Z,10.46
2023-02-19T13:50:03.822Z,10.52
2023-02-19T13:55:04.975Z,10.32
2023-02-19T14:00:06.669Z,10.13
2023-02-19T14:05:07.954Z,9.85
2023-02-19T14:10:09.349Z,9.61
2023-02-19T14:15:10.481Z,9.30
2023-02-19T14:20:11.691Z,9.00
2023-02-19T14:25:12.884Z,8.89
2023-02-19T14:30:14.116Z,8.74
2023-02-19T14:35:15.358Z,8.63
2023-02-19T14:40:16.606Z,8.63
2023-02-19T14:45:17.763Z,8.67
2023-02-19T14:50:18.967Z,8.68
2023-02-19T14:55:20.556Z,8.72
2023-02-19T15:00:21.755Z,8.73
2023-02-19T15:05:22.922Z,8.73
2023-02-19T15:10:25.187Z,8.75
2023-02-19T15:15:26.555Z,8.78
2023-02-19T15:20:27.801Z,8.80
2023-02-19T15:25:28.965Z,8.77
2023-02-19T15:30:30.185Z,8.77
2023-02-19T15:35:33.360Z,8.71
2023-02-19T15:40:34.587Z,8.70
2023-02-19T15:45:35.730Z,8.69
2023-02-19T15:50:36.994Z,8.65
2023-02-19T15:55:38.170Z,8.58
2023-02-19T16:00:39.303Z,8.52
2023-02-19T16:05:41.748Z,8.48
2023-02-19T16:10:42.919Z,8.47
2023-02-19T16:15:44.232Z,8.45
2023-02-19T16:20:45.437Z,8.46
2023-02-19T16:25:46.633Z,8.48
2023-02-19T16:30:47.774Z,8.48
2023-02-19T16:35:49.546Z,8.49
2023-02-19T16:40:50.921Z,8.50
2023-02-19T16:45:52.140Z,8.51
2023-02-19T16:50:53.317Z,8.52
2023-02-19T16:55:54.524Z,8.52
2023-02-19T17:00:56.092Z,8.52
2023-02-19T17:05:57.262Z,8.49
2023-02-19T17:10:59.061Z,8.49
2023-02-19T17:16:00.249Z,8.44
2023-02-19T17:21:01.753Z,8.33
2023-02-19T17:26:03.336Z,8.25
2023-02-19T17:31:04.540Z,8.22
2023-02-19T17:36:05.696Z,8.21
2023-02-19T17:41:06.916Z,8.20
2023-02-19T17:46:08.112Z,8.16
2023-02-19T17:51:10.637Z,8.09
2023-02-19T17:56:12.208Z,8.06
2023-02-19T18:01:13.785Z,8.02
2023-02-19T18:06:15.254Z,8.00
2023-02-19T18:11:16.422Z,7.92
2023-02-19T18:16:17.570Z,7.84
2023-02-19T18:21:18.780Z,7.81
2023-02-19T18:26:20.379Z,7.78
2023-02-19T18:31:21.617Z,7.74
2023-02-19T18:36:22.860Z,7.73
2023-02-19T18:41:24.675Z,7.73
2023-02-19T18:46:25.884Z,7.70
2023-02-19T18:51:27.078Z,7.68
2023-02-19T18:56:29.392Z,7.68
2023-02-19T19:01:30.867Z,7.67
2023-02-19T19:06:32.168Z,7.63
2023-02-19T19:11:33.376Z,7.62
2023-02-19T19:16:34.565Z,7.57
2023-02-19T19:21:35.724Z,7.55
2023-02-19T19:26:36.910Z,7.51
2023-02-19T19:31:38.596Z,7.50
2023-02-19T19:36:39.906Z,7.48
2023-02-19T19:41:41.081Z,7.45
2023-02-19T19:46:42.220Z,7.45
2023-02-19T19:51:43.422Z,7.43
2023-02-19T19:56:44.656Z,7.37
2023-02-19T20:01:45.848Z,7.33
2023-02-19T20:06:47.061Z,7.29
2023-02-19T20:11:48.572Z,7.29
2023-02-19T20:16:50.597Z,7.28
2023-02-19T20:21:51.846Z,7.26
2023-02-19T20:26:53.095Z,7.22
2023-02-19T20:31:54.386Z,7.06
2023-02-19T20:36:55.658Z,6.84
2023-02-19T20:41:56.868Z,6.67
2023-02-19T20:46:58.031Z,6.57
2023-02-19T20:51:59.688Z,6.48
2023-02-19T20:57:00.922Z,6.41
2023-02-19T21:02:02.103Z,6.31
2023-02-19T21:07:03.283Z,6.21
2023-02-19T21:12:04.528Z,6.11
2023-02-19T21:17:05.972Z,6.01
2023-02-19T21:22:07.138Z,5.94
2023-02-19T21:27:08.314Z,5.91
2023-02-19T21:32:09.680Z,5.83
2023-02-19T21:37:10.914Z,5.79
2023-02-19T21:42:12.116Z,5.74
2023-02-19T21:47:13.313Z,5.70
2023-02-19T21:52:14.540Z,5.61
2023-02-19T21:57:15.713Z,5.54
2023-02-19T22:02:19.751Z,5.48
2023-02-19T22:07:21.114Z,5.41
2023-02-19T22:12:22.266Z,5.36
2023-02-19T22:17:23.426Z,5.33
2023-02-19T22:22:24.671Z,5.33
2023-02-19T22:27:25.850Z,5.29
2023-02-19T22:32:27.123Z,5.19
2023-02-19T22:37:29.706Z,5.16
2023-02-19T22:42:30.890Z,5.14
2023-02-19T22:47:32.062Z,5.07
2023-02-19T22:52:33.273Z,4.95
2023-02-19T22:57:34.937Z,4.81
2023-02-19T23:02:36.213Z,4.65
2023-02-19T23:07:37.474Z,4.57
2023-02-19T23:12:38.602Z,4.48
2023-02-19T23:17:39.739Z,4.42
2023-02-19T23:22:40.941Z,4.31
2023-02-19T23:27:42.082Z,4.21
2023-02-19T23:32:43.205Z,4.15
2023-02-19T23:37:44.369Z,4.02
2023-02-19T23:42:45.596Z,3.89
2023-02-19T23:47:46.860Z,3.89
2023-02-19T23:52:48.040Z,3.84
2023-02-19T23:57:49.269Z,3.83
